Terminal Aerodrome Forecast
Issued by NWS Northern Indiana

Home | Current Version | Previous Version | Text Only | Print | Product List | Glossary On
Versions: 1 2 3 4 5 6 7 8 9 10 11 12 13
000
FTUS43 KIWX 151700
TAFFWA
TAF
KFWA 151724Z 1518/1618 31015G25KT P6SM BKN040
     FM152200 30007KT P6SM FEW070
     FM160300 VRB03KT P6SM SKC=

USA.gov is the U.S. government's official web portal to all federal, state and local government web resources and services.